East Fishkill, New York
Current Conditions -  °F | °C
As of 7:53 AM on Monday 20 Oct 2014 (Local Time) from KPOU Reporting Station
Broken Clouds Broken Clouds  
Wind Chill: 37°   Ceiling: 12000
Heat Index: 37°   Visibility: 10mi
Dew Point: 33°   Wind: 0mph
Humidity: 86%   Direction: NA
Pressure: 30.09"   Gusts: NA
Location:  41.562°N, 73.7865°W
Report Text: KPOU 201153Z 00000KT 10SM BKN120 03/01 A3009 RMK AO2 SLP186 T00280006 10028 21011 53005
Loading
Personal Weather Stations






























Interactive Weather Map
Tropical Storm Tracking
New forecast layout! Learn more

10-Day Weather Forecast

Advertisements
Track Severe Weather on mobile